sensor_id;sensor_type;location;lat;lon;timestamp;P1;durP1;ratioP1;P2;durP2;ratioP2
21272;SDS011;36726;52.328;10.552;2023-02-11T00:00:14;38.25;;;21.35;;
21272;SDS011;36726;52.328;10.552;2023-02-11T00:02:41;46.13;;;21.67;;
21272;SDS011;36726;52.328;10.552;2023-02-11T00:05:12;38.33;;;21.45;;
21272;SDS011;36726;52.328;10.552;2023-02-11T00:07:39;43.95;;;21.92;;
21272;SDS011;36726;52.328;10.552;2023-02-11T00:10:06;37.53;;;22.25;;
21272;SDS011;36726;52.328;10.552;2023-02-11T00:12:33;46.55;;;21.77;;
21272;SDS011;36726;52.328;10.552;2023-02-11T00:15:01;47.85;;;22.73;;
21272;SDS011;36726;52.328;10.552;2023-02-11T00:17:28;46.88;;;22.80;;
21272;SDS011;36726;52.328;10.552;2023-02-11T00:19:54;40.65;;;21.65;;
21272;SDS011;36726;52.328;10.552;2023-02-11T00:22:21;38.58;;;22.23;;
21272;SDS011;36726;52.328;10.552;2023-02-11T00:24:48;44.80;;;23.38;;
21272;SDS011;36726;52.328;10.552;2023-02-11T00:27:14;43.65;;;23.48;;
21272;SDS011;36726;52.328;10.552;2023-02-11T00:29:41;46.55;;;22.88;;
21272;SDS011;36726;52.328;10.552;2023-02-11T00:32:09;43.95;;;22.63;;
21272;SDS011;36726;52.328;10.552;2023-02-11T00:34:36;45.92;;;24.10;;
21272;SDS011;36726;52.328;10.552;2023-02-11T00:37:04;48.38;;;24.05;;
21272;SDS011;36726;52.328;10.552;2023-02-11T00:39:32;46.78;;;23.35;;
21272;SDS011;36726;52.328;10.552;2023-02-11T00:41:58;47.38;;;24.15;;
21272;SDS011;36726;52.328;10.552;2023-02-11T00:44:25;44.08;;;23.65;;
21272;SDS011;36726;52.328;10.552;2023-02-11T00:46:52;51.78;;;24.95;;
21272;SDS011;36726;52.328;10.552;2023-02-11T00:49:18;44.70;;;23.23;;
21272;SDS011;36726;52.328;10.552;2023-02-11T00:51:47;47.47;;;23.92;;
21272;SDS011;36726;52.328;10.552;2023-02-11T00:54:13;43.72;;;25.10;;
21272;SDS011;36726;52.328;10.552;2023-02-11T00:56:40;45.65;;;24.02;;
21272;SDS011;36726;52.328;10.552;2023-02-11T00:59:06;49.83;;;25.92;;
21272;SDS011;36726;52.328;10.552;2023-02-11T01:01:33;56.20;;;25.08;;
21272;SDS011;36726;52.328;10.552;2023-02-11T01:04:00;53.22;;;25.85;;
21272;SDS011;36726;52.328;10.552;2023-02-11T01:06:26;46.97;;;24.55;;
21272;SDS011;36726;52.328;10.552;2023-02-11T01:08:53;47.53;;;26.02;;
21272;SDS011;36726;52.328;10.552;2023-02-11T01:11:19;50.03;;;25.63;;
21272;SDS011;36726;52.328;10.552;2023-02-11T01:13:47;52.70;;;25.77;;
21272;SDS011;36726;52.328;10.552;2023-02-11T01:16:14;44.53;;;25.17;;
21272;SDS011;36726;52.328;10.552;2023-02-11T01:18:43;51.13;;;25.85;;
21272;SDS011;36726;52.328;10.552;2023-02-11T01:21:10;54.45;;;27.27;;
21272;SDS011;36726;52.328;10.552;2023-02-11T01:23:37;51.90;;;25.15;;
21272;SDS011;36726;52.328;10.552;2023-02-11T01:26:03;50.60;;;24.90;;
21272;SDS011;36726;52.328;10.552;2023-02-11T01:28:30;55.42;;;26.77;;
21272;SDS011;36726;52.328;10.552;2023-02-11T01:30:59;47.67;;;25.67;;
21272;SDS011;36726;52.328;10.552;2023-02-11T01:33:26;51.22;;;25.85;;
21272;SDS011;36726;52.328;10.552;2023-02-11T01:35:52;53.28;;;26.95;;
21272;SDS011;36726;52.328;10.552;2023-02-11T01:38:20;53.65;;;26.05;;
21272;SDS011;36726;52.328;10.552;2023-02-11T01:40:52;47.75;;;25.23;;
21272;SDS011;36726;52.328;10.552;2023-02-11T01:43:21;51.05;;;25.85;;
21272;SDS011;36726;52.328;10.552;2023-02-11T01:48:31;48.67;;;26.80;;
21272;SDS011;36726;52.328;10.552;2023-02-11T01:51:12;49.25;;;26.98;;
21272;SDS011;36726;52.328;10.552;2023-02-11T01:53:43;58.17;;;26.80;;
21272;SDS011;36726;52.328;10.552;2023-02-11T01:56:31;53.33;;;28.40;;
21272;SDS011;36726;52.328;10.552;2023-02-11T01:59:26;52.25;;;26.52;;
21272;SDS011;36726;52.328;10.552;2023-02-11T02:01:57;50.75;;;26.55;;
21272;SDS011;36726;52.328;10.552;2023-02-11T02:04:28;52.88;;;27.25;;
21272;SDS011;36726;52.328;10.552;2023-02-11T02:07:05;52.08;;;27.08;;
21272;SDS011;36726;52.328;10.552;2023-02-11T02:09:40;56.50;;;26.35;;
21272;SDS011;36726;52.328;10.552;2023-02-11T02:12:14;59.80;;;27.02;;
21272;SDS011;36726;52.328;10.552;2023-02-11T02:14:41;54.90;;;27.42;;
21272;SDS011;36726;52.328;10.552;2023-02-11T02:22:58;46.78;;;26.33;;
21272;SDS011;36726;52.328;10.552;2023-02-11T02:26:08;52.03;;;26.33;;
21272;SDS011;36726;52.328;10.552;2023-02-11T02:29:10;49.33;;;27.67;;
21272;SDS011;36726;52.328;10.552;2023-02-11T02:31:42;61.47;;;28.73;;
21272;SDS011;36726;52.328;10.552;2023-02-11T02:34:27;51.35;;;27.67;;
21272;SDS011;36726;52.328;10.552;2023-02-11T02:37:03;55.53;;;28.02;;
21272;SDS011;36726;52.328;10.552;2023-02-11T02:39:35;54.47;;;28.45;;
21272;SDS011;36726;52.328;10.552;2023-02-11T02:42:03;59.88;;;28.90;;
21272;SDS011;36726;52.328;10.552;2023-02-11T02:44:30;54.55;;;28.35;;
21272;SDS011;36726;52.328;10.552;2023-02-11T02:46:57;51.50;;;28.50;;
21272;SDS011;36726;52.328;10.552;2023-02-11T02:49:24;54.13;;;27.70;;
21272;SDS011;36726;52.328;10.552;2023-02-11T02:58:13;55.50;;;28.33;;
21272;SDS011;36726;52.328;10.552;2023-02-11T03:00:40;52.13;;;28.25;;
21272;SDS011;36726;52.328;10.552;2023-02-11T03:03:21;58.13;;;28.25;;
21272;SDS011;36726;52.328;10.552;2023-02-11T03:06:02;52.83;;;27.70;;
21272;SDS011;36726;52.328;10.552;2023-02-11T03:08:43;52.20;;;28.20;;
21272;SDS011;36726;52.328;10.552;2023-02-11T03:11:18;59.00;;;27.63;;
21272;SDS011;36726;52.328;10.552;2023-02-11T03:13:47;55.92;;;29.10;;
21272;SDS011;36726;52.328;10.552;2023-02-11T03:16:20;48.80;;;28.27;;
21272;SDS011;36726;52.328;10.552;2023-02-11T03:19:02;53.65;;;27.92;;
21272;SDS011;36726;52.328;10.552;2023-02-11T03:21:43;54.55;;;28.10;;
21272;SDS011;36726;52.328;10.552;2023-02-11T03:24:13;51.80;;;28.55;;
21272;SDS011;36726;52.328;10.552;2023-02-11T03:30:21;54.58;;;27.65;;
21272;SDS011;36726;52.328;10.552;2023-02-11T03:32:55;52.72;;;27.95;;
21272;SDS011;36726;52.328;10.552;2023-02-11T03:35:31;54.00;;;27.58;;
21272;SDS011;36726;52.328;10.552;2023-02-11T03:38:09;59.40;;;28.83;;
21272;SDS011;36726;52.328;10.552;2023-02-11T03:40:41;54.17;;;28.83;;
21272;SDS011;36726;52.328;10.552;2023-02-11T03:43:14;51.95;;;28.08;;
21272;SDS011;36726;52.328;10.552;2023-02-11T03:45:46;54.97;;;28.38;;
21272;SDS011;36726;52.328;10.552;2023-02-11T03:48:18;55.38;;;28.50;;
21272;SDS011;36726;52.328;10.552;2023-02-11T03:51:06;55.15;;;29.60;;
21272;SDS011;36726;52.328;10.552;2023-02-11T03:53:36;51.70;;;27.63;;
21272;SDS011;36726;52.328;10.552;2023-02-11T03:56:06;50.13;;;27.85;;
21272;SDS011;36726;52.328;10.552;2023-02-11T03:58:36;54.67;;;28.60;;
21272;SDS011;36726;52.328;10.552;2023-02-11T04:01:02;59.22;;;28.92;;
21272;SDS011;36726;52.328;10.552;2023-02-11T04:03:30;55.70;;;28.60;;
21272;SDS011;36726;52.328;10.552;2023-02-11T04:05:58;64.03;;;28.88;;
21272;SDS011;36726;52.328;10.552;2023-02-11T04:08:24;56.40;;;26.88;;
21272;SDS011;36726;52.328;10.552;2023-02-11T04:10:51;57.60;;;28.70;;
21272;SDS011;36726;52.328;10.552;2023-02-11T04:13:17;59.22;;;29.45;;
21272;SDS011;36726;52.328;10.552;2023-02-11T04:15:44;54.47;;;29.45;;
21272;SDS011;36726;52.328;10.552;2023-02-11T04:18:14;57.38;;;28.90;;
21272;SDS011;36726;52.328;10.552;2023-02-11T04:20:41;53.53;;;28.00;;
21272;SDS011;36726;52.328;10.552;2023-02-11T04:23:08;63.10;;;29.13;;
21272;SDS011;36726;52.328;10.552;2023-02-11T04:25:35;56.08;;;28.50;;
21272;SDS011;36726;52.328;10.552;2023-02-11T04:28:02;53.22;;;28.55;;
21272;SDS011;36726;52.328;10.552;2023-02-11T04:30:29;58.45;;;29.70;;
21272;SDS011;36726;52.328;10.552;2023-02-11T04:32:56;51.78;;;28.25;;
21272;SDS011;36726;52.328;10.552;2023-02-11T04:35:23;53.15;;;27.73;;
21272;SDS011;36726;52.328;10.552;2023-02-11T04:37:50;58.38;;;28.75;;
21272;SDS011;36726;52.328;10.552;2023-02-11T04:40:16;52.47;;;28.23;;
21272;SDS011;36726;52.328;10.552;2023-02-11T04:42:43;57.67;;;28.38;;
21272;SDS011;36726;52.328;10.552;2023-02-11T04:45:09;50.72;;;28.67;;
21272;SDS011;36726;52.328;10.552;2023-02-11T04:47:36;49.75;;;27.50;;
21272;SDS011;36726;52.328;10.552;2023-02-11T04:50:03;58.40;;;29.30;;
21272;SDS011;36726;52.328;10.552;2023-02-11T04:52:30;54.30;;;27.65;;
21272;SDS011;36726;52.328;10.552;2023-02-11T04:54:56;54.50;;;27.95;;
21272;SDS011;36726;52.328;10.552;2023-02-11T04:57:23;56.25;;;28.20;;
21272;SDS011;36726;52.328;10.552;2023-02-11T04:59:49;51.33;;;28.45;;
21272;SDS011;36726;52.328;10.552;2023-02-11T05:02:16;52.45;;;28.08;;
21272;SDS011;36726;52.328;10.552;2023-02-11T05:04:43;53.00;;;27.45;;
21272;SDS011;36726;52.328;10.552;2023-02-11T05:07:09;59.80;;;28.52;;
21272;SDS011;36726;52.328;10.552;2023-02-11T05:09:36;57.10;;;29.23;;
21272;SDS011;36726;52.328;10.552;2023-02-11T05:12:03;53.85;;;27.98;;
21272;SDS011;36726;52.328;10.552;2023-02-11T05:14:29;61.35;;;28.73;;
21272;SDS011;36726;52.328;10.552;2023-02-11T05:16:56;57.67;;;29.73;;
21272;SDS011;36726;52.328;10.552;2023-02-11T05:19:22;55.92;;;29.15;;
21272;SDS011;36726;52.328;10.552;2023-02-11T05:21:49;55.60;;;28.20;;
21272;SDS011;36726;52.328;10.552;2023-02-11T05:24:28;55.30;;;29.13;;
21272;SDS011;36726;52.328;10.552;2023-02-11T05:26:56;55.90;;;29.30;;
21272;SDS011;36726;52.328;10.552;2023-02-11T05:29:23;53.95;;;28.55;;
21272;SDS011;36726;52.328;10.552;2023-02-11T05:31:49;54.85;;;29.08;;
21272;SDS011;36726;52.328;10.552;2023-02-11T05:34:16;56.63;;;29.55;;
21272;SDS011;36726;52.328;10.552;2023-02-11T05:36:42;52.35;;;29.15;;
21272;SDS011;36726;52.328;10.552;2023-02-11T05:39:09;54.45;;;29.20;;
21272;SDS011;36726;52.328;10.552;2023-02-11T05:41:35;52.40;;;28.58;;
21272;SDS011;36726;52.328;10.552;2023-02-11T05:44:03;49.95;;;28.33;;
21272;SDS011;36726;52.328;10.552;2023-02-11T05:46:29;49.88;;;27.38;;
21272;SDS011;36726;52.328;10.552;2023-02-11T05:48:56;58.00;;;28.00;;
21272;SDS011;36726;52.328;10.552;2023-02-11T05:51:23;54.50;;;27.15;;
21272;SDS011;36726;52.328;10.552;2023-02-11T05:53:50;52.22;;;27.05;;
21272;SDS011;36726;52.328;10.552;2023-02-11T05:56:17;50.67;;;27.10;;
21272;SDS011;36726;52.328;10.552;2023-02-11T05:58:43;49.50;;;26.80;;
21272;SDS011;36726;52.328;10.552;2023-02-11T06:01:10;49.25;;;26.67;;
21272;SDS011;36726;52.328;10.552;2023-02-11T06:03:36;48.17;;;25.65;;
21272;SDS011;36726;52.328;10.552;2023-02-11T06:06:03;42.17;;;24.92;;
21272;SDS011;36726;52.328;10.552;2023-02-11T06:08:30;45.10;;;25.38;;
21272;SDS011;36726;52.328;10.552;2023-02-11T06:10:56;47.20;;;25.92;;
21272;SDS011;36726;52.328;10.552;2023-02-11T06:13:23;47.70;;;25.17;;
21272;SDS011;36726;52.328;10.552;2023-02-11T06:15:58;52.25;;;24.80;;
21272;SDS011;36726;52.328;10.552;2023-02-11T06:18:26;43.33;;;25.20;;
21272;SDS011;36726;52.328;10.552;2023-02-11T06:20:53;43.40;;;23.35;;
21272;SDS011;36726;52.328;10.552;2023-02-11T06:23:20;44.67;;;23.65;;
21272;SDS011;36726;52.328;10.552;2023-02-11T06:25:47;47.15;;;24.20;;
21272;SDS011;36726;52.328;10.552;2023-02-11T06:28:14;43.33;;;24.00;;
21272;SDS011;36726;52.328;10.552;2023-02-11T06:30:41;45.53;;;23.52;;
21272;SDS011;36726;52.328;10.552;2023-02-11T06:33:08;39.17;;;22.20;;
21272;SDS011;36726;52.328;10.552;2023-02-11T06:35:37;35.65;;;21.70;;
21272;SDS011;36726;52.328;10.552;2023-02-11T06:38:03;43.63;;;22.38;;
21272;SDS011;36726;52.328;10.552;2023-02-11T06:40:30;38.10;;;21.30;;
21272;SDS011;36726;52.328;10.552;2023-02-11T06:42:56;42.50;;;22.67;;
21272;SDS011;36726;52.328;10.552;2023-02-11T06:45:23;41.92;;;22.58;;
21272;SDS011;36726;52.328;10.552;2023-02-11T06:47:50;37.05;;;22.50;;
21272;SDS011;36726;52.328;10.552;2023-02-11T06:50:16;35.63;;;21.13;;
21272;SDS011;36726;52.328;10.552;2023-02-11T06:52:43;39.05;;;20.70;;
21272;SDS011;36726;52.328;10.552;2023-02-11T06:55:09;37.53;;;20.85;;
21272;SDS011;36726;52.328;10.552;2023-02-11T06:57:37;40.55;;;22.25;;
21272;SDS011;36726;52.328;10.552;2023-02-11T07:00:04;36.22;;;20.73;;
21272;SDS011;36726;52.328;10.552;2023-02-11T07:02:31;36.45;;;21.50;;
21272;SDS011;36726;52.328;10.552;2023-02-11T07:04:59;43.13;;;21.67;;
21272;SDS011;36726;52.328;10.552;2023-02-11T07:07:26;41.60;;;22.35;;
21272;SDS011;36726;52.328;10.552;2023-02-11T07:09:52;35.83;;;21.30;;
21272;SDS011;36726;52.328;10.552;2023-02-11T07:12:19;37.70;;;20.92;;
21272;SDS011;36726;52.328;10.552;2023-02-11T07:14:45;38.25;;;21.73;;
21272;SDS011;36726;52.328;10.552;2023-02-11T07:17:12;36.10;;;21.67;;
21272;SDS011;36726;52.328;10.552;2023-02-11T07:19:38;36.47;;;21.33;;
21272;SDS011;36726;52.328;10.552;2023-02-11T07:22:05;42.22;;;21.42;;
21272;SDS011;36726;52.328;10.552;2023-02-11T07:24:31;40.47;;;21.45;;
21272;SDS011;36726;52.328;10.552;2023-02-11T07:26:58;42.00;;;21.55;;
21272;SDS011;36726;52.328;10.552;2023-02-11T07:29:24;43.33;;;22.02;;
21272;SDS011;36726;52.328;10.552;2023-02-11T07:31:52;41.17;;;21.73;;
21272;SDS011;36726;52.328;10.552;2023-02-11T07:34:19;37.67;;;21.48;;
21272;SDS011;36726;52.328;10.552;2023-02-11T07:36:45;43.88;;;22.83;;
21272;SDS011;36726;52.328;10.552;2023-02-11T07:39:14;42.03;;;22.35;;
21272;SDS011;36726;52.328;10.552;2023-02-11T07:41:41;40.05;;;21.15;;
21272;SDS011;36726;52.328;10.552;2023-02-11T07:44:08;46.00;;;22.77;;
21272;SDS011;36726;52.328;10.552;2023-02-11T07:46:34;39.22;;;22.13;;
21272;SDS011;36726;52.328;10.552;2023-02-11T07:49:01;40.60;;;22.38;;
21272;SDS011;36726;52.328;10.552;2023-02-11T07:51:28;40.53;;;21.92;;
21272;SDS011;36726;52.328;10.552;2023-02-11T07:53:57;39.47;;;21.70;;
21272;SDS011;36726;52.328;10.552;2023-02-11T07:56:25;38.95;;;20.88;;
21272;SDS011;36726;52.328;10.552;2023-02-11T07:58:52;37.83;;;21.33;;
21272;SDS011;36726;52.328;10.552;2023-02-11T08:01:21;38.20;;;21.52;;
21272;SDS011;36726;52.328;10.552;2023-02-11T08:03:50;39.30;;;21.60;;
21272;SDS011;36726;52.328;10.552;2023-02-11T08:06:18;37.72;;;22.05;;
21272;SDS011;36726;52.328;10.552;2023-02-11T08:08:46;39.58;;;21.50;;
21272;SDS011;36726;52.328;10.552;2023-02-11T08:11:23;45.75;;;22.42;;
21272;SDS011;36726;52.328;10.552;2023-02-11T08:13:51;40.15;;;21.40;;
21272;SDS011;36726;52.328;10.552;2023-02-11T08:16:20;36.58;;;21.75;;
21272;SDS011;36726;52.328;10.552;2023-02-11T08:18:52;37.63;;;20.77;;
21272;SDS011;36726;52.328;10.552;2023-02-11T08:21:20;40.72;;;21.90;;
21272;SDS011;36726;52.328;10.552;2023-02-11T08:23:47;41.33;;;21.38;;
21272;SDS011;36726;52.328;10.552;2023-02-11T08:26:18;41.65;;;21.55;;
21272;SDS011;36726;52.328;10.552;2023-02-11T08:28:47;44.75;;;21.23;;
21272;SDS011;36726;52.328;10.552;2023-02-11T08:31:18;42.25;;;21.85;;
21272;SDS011;36726;52.328;10.552;2023-02-11T08:33:46;40.67;;;21.88;;
21272;SDS011;36726;52.328;10.552;2023-02-11T08:36:18;46.90;;;22.85;;
21272;SDS011;36726;52.328;10.552;2023-02-11T08:38:50;39.85;;;22.95;;
21272;SDS011;36726;52.328;10.552;2023-02-11T08:41:16;42.33;;;22.33;;
21272;SDS011;36726;52.328;10.552;2023-02-11T08:43:44;39.75;;;21.73;;
21272;SDS011;36726;52.328;10.552;2023-02-11T08:46:12;40.60;;;21.65;;
21272;SDS011;36726;52.328;10.552;2023-02-11T08:48:41;46.45;;;23.58;;
21272;SDS011;36726;52.328;10.552;2023-02-11T08:51:09;41.75;;;23.42;;
21272;SDS011;36726;52.328;10.552;2023-02-11T08:53:39;44.70;;;22.77;;
21272;SDS011;36726;52.328;10.552;2023-02-11T08:56:05;40.67;;;23.08;;
21272;SDS011;36726;52.328;10.552;2023-02-11T08:58:32;40.90;;;21.73;;
21272;SDS011;36726;52.328;10.552;2023-02-11T09:00:59;45.13;;;23.08;;
21272;SDS011;36726;52.328;10.552;2023-02-11T09:03:30;42.80;;;21.70;;
21272;SDS011;36726;52.328;10.552;2023-02-11T09:05:56;42.63;;;22.10;;
21272;SDS011;36726;52.328;10.552;2023-02-11T09:08:24;44.78;;;22.58;;
21272;SDS011;36726;52.328;10.552;2023-02-11T09:10:51;41.45;;;22.13;;
21272;SDS011;36726;52.328;10.552;2023-02-11T09:13:17;41.03;;;22.73;;
21272;SDS011;36726;52.328;10.552;2023-02-11T09:15:44;43.83;;;22.27;;
21272;SDS011;36726;52.328;10.552;2023-02-11T09:18:11;42.63;;;21.42;;
21272;SDS011;36726;52.328;10.552;2023-02-11T09:20:39;37.40;;;21.10;;
21272;SDS011;36726;52.328;10.552;2023-02-11T09:23:05;45.08;;;22.00;;
21272;SDS011;36726;52.328;10.552;2023-02-11T09:25:32;43.50;;;23.10;;
21272;SDS011;36726;52.328;10.552;2023-02-11T09:27:58;44.00;;;22.85;;
21272;SDS011;36726;52.328;10.552;2023-02-11T09:30:26;45.13;;;22.58;;
21272;SDS011;36726;52.328;10.552;2023-02-11T09:32:52;45.10;;;23.05;;
21272;SDS011;36726;52.328;10.552;2023-02-11T09:35:19;45.90;;;22.88;;
21272;SDS011;36726;52.328;10.552;2023-02-11T09:37:45;41.28;;;22.25;;
21272;SDS011;36726;52.328;10.552;2023-02-11T09:40:12;37.78;;;21.15;;
21272;SDS011;36726;52.328;10.552;2023-02-11T09:42:44;44.15;;;22.65;;
21272;SDS011;36726;52.328;10.552;2023-02-11T09:45:17;41.03;;;22.05;;
21272;SDS011;36726;52.328;10.552;2023-02-11T09:47:47;45.20;;;23.13;;
21272;SDS011;36726;52.328;10.552;2023-02-11T09:50:21;46.80;;;22.98;;
21272;SDS011;36726;52.328;10.552;2023-02-11T09:52:59;39.97;;;21.92;;
21272;SDS011;36726;52.328;10.552;2023-02-11T09:55:31;42.53;;;21.77;;
21272;SDS011;36726;52.328;10.552;2023-02-11T09:58:03;42.15;;;22.35;;
21272;SDS011;36726;52.328;10.552;2023-02-11T10:00:39;36.45;;;21.75;;
21272;SDS011;36726;52.328;10.552;2023-02-11T10:03:17;38.58;;;22.08;;
21272;SDS011;36726;52.328;10.552;2023-02-11T10:08:21;38.78;;;22.75;;
21272;SDS011;36726;52.328;10.552;2023-02-11T10:11:03;45.38;;;23.00;;
21272;SDS011;36726;52.328;10.552;2023-02-11T10:13:44;42.53;;;23.30;;
21272;SDS011;36726;52.328;10.552;2023-02-11T10:16:39;40.70;;;22.13;;
21272;SDS011;36726;52.328;10.552;2023-02-11T10:24:57;49.45;;;24.10;;
21272;SDS011;36726;52.328;10.552;2023-02-11T10:27:27;42.95;;;22.38;;
21272;SDS011;36726;52.328;10.552;2023-02-11T10:35:42;43.75;;;22.52;;
21272;SDS011;36726;52.328;10.552;2023-02-11T10:38:11;44.75;;;23.13;;
21272;SDS011;36726;52.328;10.552;2023-02-11T10:40:38;42.10;;;21.98;;
21272;SDS011;36726;52.328;10.552;2023-02-11T10:43:05;44.60;;;24.13;;
21272;SDS011;36726;52.328;10.552;2023-02-11T10:45:41;42.17;;;22.25;;
21272;SDS011;36726;52.328;10.552;2023-02-11T10:51:13;40.78;;;21.70;;
21272;SDS011;36726;52.328;10.552;2023-02-11T10:53:40;47.90;;;22.52;;
21272;SDS011;36726;52.328;10.552;2023-02-11T10:56:07;43.65;;;21.60;;
21272;SDS011;36726;52.328;10.552;2023-02-11T10:58:44;38.90;;;21.17;;
21272;SDS011;36726;52.328;10.552;2023-02-11T11:01:19;38.47;;;22.02;;
21272;SDS011;36726;52.328;10.552;2023-02-11T11:03:50;41.22;;;22.60;;
21272;SDS011;36726;52.328;10.552;2023-02-11T11:06:27;41.85;;;22.17;;
21272;SDS011;36726;52.328;10.552;2023-02-11T11:08:57;39.83;;;21.58;;
21272;SDS011;36726;52.328;10.552;2023-02-11T11:11:24;42.58;;;22.48;;
21272;SDS011;36726;52.328;10.552;2023-02-11T11:16:20;45.78;;;21.83;;
21272;SDS011;36726;52.328;10.552;2023-02-11T11:21:42;42.50;;;22.85;;
21272;SDS011;36726;52.328;10.552;2023-02-11T11:24:20;43.22;;;23.52;;
21272;SDS011;36726;52.328;10.552;2023-02-11T11:26:54;41.75;;;22.10;;
21272;SDS011;36726;52.328;10.552;2023-02-11T11:29:25;35.92;;;21.05;;
21272;SDS011;36726;52.328;10.552;2023-02-11T11:32:04;38.20;;;21.33;;
21272;SDS011;36726;52.328;10.552;2023-02-11T11:34:42;38.58;;;20.55;;
21272;SDS011;36726;52.328;10.552;2023-02-11T11:37:25;44.08;;;20.67;;
21272;SDS011;36726;52.328;10.552;2023-02-11T11:39:57;40.00;;;20.65;;
21272;SDS011;36726;52.328;10.552;2023-02-11T11:42:33;36.35;;;20.10;;
21272;SDS011;36726;52.328;10.552;2023-02-11T11:47:42;38.35;;;20.65;;
21272;SDS011;36726;52.328;10.552;2023-02-11T11:53:03;32.67;;;19.77;;
21272;SDS011;36726;52.328;10.552;2023-02-11T11:55:35;39.63;;;21.00;;
21272;SDS011;36726;52.328;10.552;2023-02-11T11:58:17;35.80;;;18.92;;
21272;SDS011;36726;52.328;10.552;2023-02-11T12:00:50;33.05;;;19.70;;
21272;SDS011;36726;52.328;10.552;2023-02-11T12:06:17;32.35;;;17.88;;
21272;SDS011;36726;52.328;10.552;2023-02-11T12:17:21;34.35;;;16.70;;
21272;SDS011;36726;52.328;10.552;2023-02-11T12:26:13;28.13;;;13.68;;
21272;SDS011;36726;52.328;10.552;2023-02-11T12:28:57;24.60;;;14.23;;
21272;SDS011;36726;52.328;10.552;2023-02-11T12:40:31;23.70;;;13.48;;
21272;SDS011;36726;52.328;10.552;2023-02-11T12:43:13;23.13;;;12.32;;
21272;SDS011;36726;52.328;10.552;2023-02-11T12:46:05;21.67;;;11.95;;
21272;SDS011;36726;52.328;10.552;2023-02-11T12:56:36;19.92;;;11.98;;
21272;SDS011;36726;52.328;10.552;2023-02-11T12:59:11;26.90;;;12.98;;
21272;SDS011;36726;52.328;10.552;2023-02-11T13:01:42;21.02;;;12.60;;
21272;SDS011;36726;52.328;10.552;2023-02-11T13:06:56;20.88;;;12.13;;
21272;SDS011;36726;52.328;10.552;2023-02-11T13:09:32;23.02;;;12.55;;
21272;SDS011;36726;52.328;10.552;2023-02-11T13:12:04;20.02;;;11.27;;
21272;SDS011;36726;52.328;10.552;2023-02-11T13:14:51;19.50;;;11.73;;
21272;SDS011;36726;52.328;10.552;2023-02-11T13:17:27;19.33;;;11.68;;
21272;SDS011;36726;52.328;10.552;2023-02-11T13:20:03;24.77;;;12.80;;
21272;SDS011;36726;52.328;10.552;2023-02-11T13:22:45;19.02;;;12.00;;
21272;SDS011;36726;52.328;10.552;2023-02-11T13:25:32;26.25;;;12.60;;
21272;SDS011;36726;52.328;10.552;2023-02-11T13:28:14;25.02;;;13.32;;
21272;SDS011;36726;52.328;10.552;2023-02-11T13:31:01;20.77;;;12.85;;
21272;SDS011;36726;52.328;10.552;2023-02-11T13:33:33;20.67;;;13.00;;
21272;SDS011;36726;52.328;10.552;2023-02-11T13:38:30;26.63;;;13.65;;
21272;SDS011;36726;52.328;10.552;2023-02-11T13:41:12;29.65;;;13.48;;
21272;SDS011;36726;52.328;10.552;2023-02-11T13:43:43;19.60;;;12.38;;
21272;SDS011;36726;52.328;10.552;2023-02-11T13:46:10;20.83;;;12.73;;
21272;SDS011;36726;52.328;10.552;2023-02-11T13:48:49;25.02;;;12.30;;
21272;SDS011;36726;52.328;10.552;2023-02-11T13:51:32;22.55;;;13.05;;
21272;SDS011;36726;52.328;10.552;2023-02-11T13:54:03;23.15;;;12.05;;
21272;SDS011;36726;52.328;10.552;2023-02-11T13:56:35;20.98;;;12.32;;
21272;SDS011;36726;52.328;10.552;2023-02-11T13:59:50;27.25;;;12.65;;
21272;SDS011;36726;52.328;10.552;2023-02-11T14:04:35;21.88;;;13.13;;
21272;SDS011;36726;52.328;10.552;2023-02-11T14:07:28;25.05;;;13.35;;
21272;SDS011;36726;52.328;10.552;2023-02-11T14:13:27;24.67;;;13.52;;
21272;SDS011;36726;52.328;10.552;2023-02-11T14:16:08;29.85;;;14.32;;
21272;SDS011;36726;52.328;10.552;2023-02-11T14:23:52;23.42;;;13.95;;
21272;SDS011;36726;52.328;10.552;2023-02-11T14:26:44;24.75;;;13.65;;
21272;SDS011;36726;52.328;10.552;2023-02-11T14:32:00;24.20;;;13.82;;
21272;SDS011;36726;52.328;10.552;2023-02-11T14:34:52;25.10;;;14.40;;
21272;SDS011;36726;52.328;10.552;2023-02-11T14:43:04;27.58;;;14.02;;
21272;SDS011;36726;52.328;10.552;2023-02-11T14:45:38;26.48;;;15.13;;
21272;SDS011;36726;52.328;10.552;2023-02-11T14:48:16;27.70;;;15.48;;
21272;SDS011;36726;52.328;10.552;2023-02-11T14:53:20;29.83;;;15.32;;
21272;SDS011;36726;52.328;10.552;2023-02-11T14:55:50;32.58;;;16.05;;
21272;SDS011;36726;52.328;10.552;2023-02-11T15:00:51;31.60;;;15.85;;
21272;SDS011;36726;52.328;10.552;2023-02-11T15:03:41;28.50;;;15.35;;
21272;SDS011;36726;52.328;10.552;2023-02-11T15:06:15;30.10;;;16.00;;
21272;SDS011;36726;52.328;10.552;2023-02-11T15:08:46;29.63;;;15.98;;
21272;SDS011;36726;52.328;10.552;2023-02-11T15:11:19;27.35;;;14.63;;
21272;SDS011;36726;52.328;10.552;2023-02-11T15:13:47;25.77;;;14.45;;
21272;SDS011;36726;52.328;10.552;2023-02-11T15:16:17;29.00;;;15.00;;
21272;SDS011;36726;52.328;10.552;2023-02-11T15:18:48;30.02;;;14.85;;
21272;SDS011;36726;52.328;10.552;2023-02-11T15:21:31;30.02;;;15.57;;
21272;SDS011;36726;52.328;10.552;2023-02-11T15:24:05;24.77;;;14.52;;
21272;SDS011;36726;52.328;10.552;2023-02-11T15:26:56;28.25;;;16.35;;
21272;SDS011;36726;52.328;10.552;2023-02-11T15:29:45;29.17;;;15.30;;
21272;SDS011;36726;52.328;10.552;2023-02-11T15:34:46;25.45;;;15.20;;
21272;SDS011;36726;52.328;10.552;2023-02-11T15:37:24;24.13;;;14.02;;
21272;SDS011;36726;52.328;10.552;2023-02-11T15:39:55;26.73;;;14.43;;
21272;SDS011;36726;52.328;10.552;2023-02-11T15:42:34;25.08;;;15.48;;
21272;SDS011;36726;52.328;10.552;2023-02-11T15:48:20;26.13;;;14.57;;
21272;SDS011;36726;52.328;10.552;2023-02-11T15:50:51;26.42;;;14.82;;
21272;SDS011;36726;52.328;10.552;2023-02-11T15:53:26;28.25;;;16.08;;
21272;SDS011;36726;52.328;10.552;2023-02-11T15:56:01;24.50;;;15.23;;
21272;SDS011;36726;52.328;10.552;2023-02-11T15:58:36;31.23;;;16.50;;
21272;SDS011;36726;52.328;10.552;2023-02-11T16:01:05;30.27;;;17.13;;
21272;SDS011;36726;52.328;10.552;2023-02-11T16:03:33;28.90;;;16.58;;
21272;SDS011;36726;52.328;10.552;2023-02-11T16:06:17;24.88;;;15.18;;
21272;SDS011;36726;52.328;10.552;2023-02-11T16:09:46;30.15;;;16.33;;
21272;SDS011;36726;52.328;10.552;2023-02-11T16:17:01;31.67;;;16.85;;
21272;SDS011;36726;52.328;10.552;2023-02-11T16:19:33;32.05;;;17.17;;
21272;SDS011;36726;52.328;10.552;2023-02-11T16:22:10;28.98;;;16.58;;
21272;SDS011;36726;52.328;10.552;2023-02-11T16:24:44;31.92;;;16.85;;
21272;SDS011;36726;52.328;10.552;2023-02-11T16:27:20;35.80;;;18.23;;
21272;SDS011;36726;52.328;10.552;2023-02-11T16:29:50;33.97;;;17.23;;
21272;SDS011;36726;52.328;10.552;2023-02-11T16:32:22;30.23;;;17.25;;